Time;durP1;ratioP1;P1;durP2;ratioP2;P2;SDS_P1;SDS_P2;PMS_P1;PMS_P2;Temp;Humidity;BMP_temperature;BMP_pressure;BME280_temperature;BME280_humidity;BME280_pressure;Samples;Min_cycle;Max_cycle;Signal;HPM_P1;HPM_P2
2022/05/07 00:00:36;;;;;;;11.95;9.13;;;11.40;99.90;;;;;;5057360;28;20073;-78
2022/05/07 00:03:02;;;;;;;10.88;7.75;;;11.40;99.90;;;;;;5023171;28;20048;-78
2022/05/07 00:05:28;;;;;;;11.13;8.15;;;11.30;99.90;;;;;;5057508;28;20416;-78
2022/05/07 00:07:53;;;;;;;12.52;8.20;;;11.30;99.90;;;;;;5039250;28;20058;-78
2022/05/07 00:10:19;;;;;;;13.07;8.35;;;11.20;99.90;;;;;;5040846;28;20049;-80
2022/05/07 00:12:45;;;;;;;11.40;8.32;;;11.20;99.90;;;;;;5039427;28;20096;-78
2022/05/07 00:15:11;;;;;;;13.65;9.63;;;11.10;99.90;;;;;;5057071;28;20052;-77
2022/05/07 00:20:21;;;;;;;14.15;9.85;;;11.00;99.90;;;;;;5057470;28;20057;-77
2022/05/07 00:22:47;;;;;;;13.02;8.93;;;10.90;99.90;;;;;;5026222;28;20060;-77
2022/05/07 00:25:13;;;;;;;14.80;9.57;;;10.90;99.90;;;;;;5043158;28;20052;-77
2022/05/07 00:27:39;;;;;;;15.02;9.90;;;10.90;99.90;;;;;;5044644;28;20056;-77
2022/05/07 00:30:06;;;;;;;18.38;12.43;;;10.90;99.90;;;;;;5061085;28;20112;-77
2022/05/07 00:32:32;;;;;;;16.55;11.68;;;11.00;99.90;;;;;;5047383;28;20051;-78
2022/05/07 00:34:58;;;;;;;12.57;9.85;;;11.00;99.90;;;;;;5064610;28;20056;-77
2022/05/07 00:37:24;;;;;;;16.85;11.52;;;11.10;99.90;;;;;;5063136;28;20048;-78
2022/05/07 00:39:50;;;;;;;18.63;11.23;;;11.10;99.90;;;;;;5048706;28;20044;-78
2022/05/07 00:42:17;;;;;;;13.43;9.75;;;11.20;99.90;;;;;;5043594;28;20116;-79
2022/05/07 00:44:43;;;;;;;17.38;11.10;;;11.20;99.90;;;;;;5044383;28;20037;-79
2022/05/07 00:47:34;;;;;;;18.55;12.77;;;11.30;99.90;;;;;;5043249;28;20045;-79
2022/05/07 00:52:47;;;;;;;17.75;12.15;;;11.40;99.90;;;;;;5060816;28;20055;-77
2022/05/07 00:55:14;;;;;;;22.20;12.95;;;11.50;99.90;;;;;;5058953;28;20069;-77
2022/05/07 00:57:40;;;;;;;17.73;11.55;;;11.50;99.90;;;;;;5060325;28;20049;-77
2022/05/07 01:00:08;;;;;;;16.63;11.85;;;11.50;99.90;;;;;;5043324;28;20045;-76
2022/05/07 01:02:36;;;;;;;16.63;12.18;;;11.50;99.90;;;;;;5059992;28;20057;-76
2022/05/07 01:05:02;;;;;;;15.95;11.55;;;11.50;99.90;;;;;;5060737;28;20394;-77
2022/05/07 01:07:29;;;;;;;17.20;11.73;;;11.50;99.90;;;;;;5042416;28;20056;-78
2022/05/07 01:09:55;;;;;;;16.80;12.50;;;11.60;99.90;;;;;;5060944;28;20076;-78
2022/05/07 01:12:21;;;;;;;18.20;12.65;;;11.60;99.90;;;;;;5059202;28;20125;-78
2022/05/07 01:14:47;;;;;;;17.95;12.30;;;11.60;99.90;;;;;;5060919;28;20136;-78
2022/05/07 01:17:13;;;;;;;17.02;12.52;;;11.60;99.90;;;;;;5060024;28;20053;-77
2022/05/07 01:19:38;;;;;;;15.82;10.85;;;11.50;99.90;;;;;;5043939;28;20108;-77
2022/05/07 01:22:05;;;;;;;16.23;10.90;;;11.50;99.90;;;;;;5061269;28;20049;-79
2022/05/07 01:24:30;;;;;;;12.98;9.95;;;11.60;99.90;;;;;;5059305;28;20049;-79
2022/05/07 01:26:56;;;;;;;14.40;10.23;;;11.60;99.90;;;;;;5060969;28;20029;-79
2022/05/07 01:29:22;;;;;;;14.60;10.68;;;11.60;99.90;;;;;;5070715;28;20135;-80
2022/05/07 01:31:47;;;;;;;15.95;11.48;;;11.70;99.90;;;;;;5046557;28;20041;-79
2022/05/07 01:34:13;;;;;;;14.90;11.32;;;11.70;99.90;;;;;;5077809;28;20070;-80
2022/05/07 01:36:40;;;;;;;15.50;10.77;;;11.80;99.90;;;;;;5063090;28;20045;-80
2022/05/07 01:39:05;;;;;;;15.02;11.23;;;11.80;99.90;;;;;;5079866;28;20091;-80
2022/05/07 01:41:31;;;;;;;15.32;11.07;;;11.90;99.90;;;;;;5062085;28;20052;-80
2022/05/07 01:43:56;;;;;;;14.82;10.70;;;11.90;99.90;;;;;;5080054;28;20551;-80
2022/05/07 01:49:06;;;;;;;16.65;10.55;;;12.10;99.90;;;;;;5079566;28;20052;-80
2022/05/07 01:51:33;;;;;;;17.63;10.77;;;12.10;99.90;;;;;;5078754;28;20075;-80
2022/05/07 01:53:59;;;;;;;14.05;10.18;;;12.10;99.90;;;;;;5079031;28;20108;-80
2022/05/07 01:56:25;;;;;;;15.75;11.05;;;12.10;99.90;;;;;;5062734;28;20040;-79
2022/05/07 01:58:50;;;;;;;16.77;11.60;;;12.20;99.90;;;;;;5078389;28;20139;-79
2022/05/07 02:01:16;;;;;;;13.90;10.32;;;12.20;99.90;;;;;;5079775;28;20052;-79
2022/05/07 02:03:42;;;;;;;14.90;11.60;;;12.10;99.90;;;;;;5078337;28;20408;-79
2022/05/07 02:06:08;;;;;;;13.65;9.85;;;12.00;99.90;;;;;;5079145;28;20041;-79
2022/05/07 02:08:33;;;;;;;13.25;9.82;;;12.00;99.90;;;;;;5062116;28;20110;-79
2022/05/07 02:11:01;;;;;;;13.55;9.63;;;12.00;99.90;;;;;;5062126;28;20036;-79
2022/05/07 02:13:27;;;;;;;15.55;10.43;;;12.00;99.90;;;;;;5062617;28;20048;-80
2022/05/07 02:15:53;;;;;;;15.35;10.20;;;12.00;99.90;;;;;;5078015;28;20044;-80
2022/05/07 02:18:19;;;;;;;15.20;9.32;;;12.10;99.90;;;;;;5079330;28;20055;-79
2022/05/07 02:20:45;;;;;;;18.73;9.60;;;12.10;99.90;;;;;;5077693;28;20056;-79
2022/05/07 02:23:11;;;;;;;15.05;11.20;;;12.10;99.90;;;;;;5062349;28;20098;-79
2022/05/07 02:25:37;;;;;;;15.10;10.98;;;12.00;99.90;;;;;;5077489;28;20146;-79
2022/05/07 02:28:03;;;;;;;17.02;11.13;;;12.10;99.90;;;;;;5044782;28;20045;-79
2022/05/07 02:30:29;;;;;;;16.23;10.68;;;12.00;99.90;;;;;;5060204;28;20060;-79
2022/05/07 02:32:55;;;;;;;14.27;10.63;;;12.00;99.90;;;;;;5041202;28;20049;-79
2022/05/07 02:35:22;;;;;;;13.13;10.38;;;11.90;99.90;;;;;;5025859;28;20045;-79
2022/05/07 02:37:48;;;;;;;13.10;9.65;;;11.90;99.90;;;;;;5057694;28;20069;-79
2022/05/07 02:40:13;;;;;;;13.00;10.15;;;11.90;99.90;;;;;;5058756;28;20102;-79
2022/05/07 02:42:43;;;;;;;14.77;10.45;;;11.80;99.90;;;;;;5075492;28;20052;-80
2022/05/07 02:45:11;;;;;;;16.42;11.05;;;11.80;99.90;;;;;;5077742;28;20044;-79
2022/05/07 02:47:39;;;;;;;15.50;11.50;;;11.80;99.90;;;;;;5078111;28;20052;-79
2022/05/07 02:50:06;;;;;;;15.15;10.55;;;11.80;99.90;;;;;;5061076;28;20516;-80
2022/05/07 02:52:35;;;;;;;16.00;10.45;;;11.80;99.90;;;;;;5061993;28;20424;-79
2022/05/07 02:55:05;;;;;;;14.18;10.27;;;11.80;99.90;;;;;;5060716;28;20048;-80
2022/05/07 02:57:31;;;;;;;16.73;11.50;;;11.80;99.90;;;;;;5078528;28;20063;-79
2022/05/07 02:59:57;;;;;;;16.10;11.85;;;11.80;99.90;;;;;;5061111;28;20068;-78
2022/05/07 03:02:23;;;;;;;15.50;11.50;;;11.80;99.90;;;;;;5078002;28;20067;-79
2022/05/07 03:04:49;;;;;;;17.55;11.05;;;11.70;99.90;;;;;;5078092;28;20052;-78
2022/05/07 03:07:16;;;;;;;15.65;11.70;;;11.70;99.90;;;;;;5076991;28;20048;-79
2022/05/07 03:09:42;;;;;;;15.00;10.90;;;11.70;99.90;;;;;;5061647;28;20051;-79
2022/05/07 03:12:09;;;;;;;17.50;10.38;;;11.70;99.90;;;;;;5076704;28;20050;-79
2022/05/07 03:14:36;;;;;;;18.88;11.35;;;11.70;99.90;;;;;;5045085;28;20052;-79
2022/05/07 03:17:02;;;;;;;19.30;12.30;;;11.80;99.90;;;;;;5077035;28;20061;-78
2022/05/07 03:19:28;;;;;;;19.05;12.30;;;11.70;99.90;;;;;;5060821;28;20502;-78
2022/05/07 03:21:54;;;;;;;17.60;12.20;;;11.70;99.90;;;;;;5077865;28;20048;-77
2022/05/07 03:24:20;;;;;;;16.70;13.25;;;11.70;99.90;;;;;;5076575;28;20045;-77
2022/05/07 03:26:45;;;;;;;20.55;12.55;;;11.70;99.90;;;;;;5044667;28;20051;-78
2022/05/07 03:29:11;;;;;;;17.40;13.13;;;11.70;99.90;;;;;;5066515;28;20462;-78
2022/05/07 03:31:39;;;;;;;19.27;13.13;;;11.70;99.90;;;;;;5057906;28;20056;-79
2022/05/07 03:34:06;;;;;;;20.25;13.55;;;11.70;99.90;;;;;;5056611;28;20060;-78
2022/05/07 03:36:32;;;;;;;19.63;13.32;;;11.80;99.90;;;;;;5040876;28;20049;-78
2022/05/07 03:38:57;;;;;;;19.73;13.23;;;11.80;99.90;;;;;;5057819;28;20060;-78
2022/05/07 03:41:23;;;;;;;22.38;14.15;;;11.90;99.90;;;;;;5047346;28;20041;-77
2022/05/07 03:43:49;;;;;;;21.73;14.98;;;11.90;99.90;;;;;;5078106;28;20072;-77
2022/05/07 03:46:15;;;;;;;21.58;14.70;;;12.00;99.90;;;;;;5059454;28;20044;-77
2022/05/07 03:48:41;;;;;;;21.63;13.95;;;12.10;99.90;;;;;;5061059;28;20136;-76
2022/05/07 03:51:06;;;;;;;19.45;14.93;;;12.10;99.90;;;;;;5043086;28;20185;-77
2022/05/07 03:53:32;;;;;;;20.38;13.98;;;12.10;99.90;;;;;;5027616;28;20075;-77
2022/05/07 03:56:06;;;;;;;20.55;14.07;;;12.20;99.90;;;;;;5059833;28;20045;-77
2022/05/07 03:58:33;;;;;;;19.20;14.60;;;12.20;99.90;;;;;;5076124;28;20062;-77
2022/05/07 04:00:59;;;;;;;21.50;15.48;;;12.20;99.90;;;;;;5077614;28;20586;-77
2022/05/07 04:03:27;;;;;;;21.25;14.45;;;12.30;99.90;;;;;;5076260;28;20052;-77
2022/05/07 04:05:53;;;;;;;21.65;14.55;;;12.30;99.90;;;;;;5060822;28;20050;-78
2022/05/07 04:08:19;;;;;;;19.13;13.95;;;12.30;99.90;;;;;;5059598;28;20079;-78
2022/05/07 04:10:45;;;;;;;21.95;15.02;;;12.30;99.90;;;;;;5077089;28;20045;-79
2022/05/07 04:13:12;;;;;;;23.42;14.68;;;12.20;99.90;;;;;;5076725;28;20091;-79
2022/05/07 04:15:39;;;;;;;21.40;14.20;;;12.20;99.90;;;;;;5076555;28;20108;-79
2022/05/07 04:18:07;;;;;;;19.38;14.43;;;12.10;99.90;;;;;;5060540;28;20056;-78
2022/05/07 04:20:33;;;;;;;19.35;14.57;;;12.10;99.90;;;;;;5075931;28;20052;-78
2022/05/07 04:22:59;;;;;;;23.60;14.98;;;12.10;99.90;;;;;;5060517;28;20533;-78
2022/05/07 04:25:26;;;;;;;23.25;15.40;;;12.10;99.90;;;;;;5075967;28;20048;-78
2022/05/07 04:27:53;;;;;;;21.77;15.15;;;12.10;99.90;;;;;;5061086;28;20074;-77
2022/05/07 04:30:23;;;;;;;24.02;15.52;;;12.10;99.90;;;;;;5057483;28;20059;-77
2022/05/07 04:32:49;;;;;;;20.67;15.43;;;12.10;99.90;;;;;;5039407;28;20057;-78
2022/05/07 04:35:15;;;;;;;21.40;15.38;;;12.20;99.90;;;;;;5040787;28;20045;-79
2022/05/07 04:37:41;;;;;;;24.23;15.10;;;12.20;99.90;;;;;;5055316;28;20105;-80
2022/05/07 04:40:09;;;;;;;23.17;15.55;;;12.20;99.90;;;;;;5056972;28;20056;-79
2022/05/07 04:42:36;;;;;;;22.25;14.82;;;12.30;99.90;;;;;;5056547;28;20052;-79
2022/05/07 04:45:01;;;;;;;23.08;15.85;;;12.30;99.90;;;;;;5076660;28;20071;-80
2022/05/07 04:47:27;;;;;;;24.13;14.80;;;12.40;99.90;;;;;;5060004;28;20051;-79
2022/05/07 04:49:53;;;;;;;22.67;15.40;;;12.40;99.90;;;;;;5059308;28;20491;-80
2022/05/07 04:52:18;;;;;;;24.95;16.10;;;12.50;99.90;;;;;;5077198;28;20170;-78
2022/05/07 04:54:44;;;;;;;22.58;15.32;;;12.50;99.90;;;;;;5025911;28;20064;-77
2022/05/07 04:57:11;;;;;;;22.30;16.65;;;12.60;99.90;;;;;;5043155;28;20037;-78
2022/05/07 04:59:36;;;;;;;22.83;17.40;;;12.60;99.90;;;;;;5058952;28;20033;-79
2022/05/07 05:02:02;;;;;;;24.60;16.48;;;12.60;99.90;;;;;;5077030;28;20044;-79
2022/05/07 05:04:28;;;;;;;23.80;16.65;;;12.70;99.90;;;;;;5059885;28;20048;-78
2022/05/07 05:06:54;;;;;;;25.08;16.42;;;12.70;99.90;;;;;;5076335;28;20048;-79
2022/05/07 05:09:19;;;;;;;23.25;16.58;;;12.80;99.90;;;;;;5079163;28;20140;-80
2022/05/07 05:11:45;;;;;;;24.05;16.42;;;12.80;99.90;;;;;;5079594;28;20060;-79
2022/05/07 05:16:55;;;;;;;22.83;16.25;;;12.90;99.90;;;;;;5079209;28;20127;-79
2022/05/07 05:19:21;;;;;;;23.58;16.65;;;13.00;99.90;;;;;;5079954;28;20095;-80
2022/05/07 05:21:47;;;;;;;25.02;16.67;;;13.00;99.90;;;;;;5063482;28;20076;-79
2022/05/07 05:24:12;;;;;;;22.42;16.08;;;13.00;99.90;;;;;;5079237;28;20055;-80
2022/05/07 05:26:39;;;;;;;23.77;16.33;;;13.10;99.90;;;;;;5063350;28;20052;-79
2022/05/07 05:29:04;;;;;;;24.40;16.58;;;13.20;99.90;;;;;;5069508;28;20055;-79
2022/05/07 05:31:30;;;;;;;23.10;16.40;;;13.20;99.90;;;;;;5060205;28;20084;-78
2022/05/07 05:33:59;;;;;;;26.67;16.90;;;13.20;99.90;;;;;;5058744;28;20037;-78
2022/05/07 05:36:28;;;;;;;25.77;17.05;;;13.20;99.90;;;;;;5059941;28;20052;-79
2022/05/07 05:38:54;;;;;;;23.80;15.75;;;13.20;99.90;;;;;;5042855;28;20147;-77
2022/05/07 05:41:20;;;;;;;24.52;15.75;;;13.30;99.90;;;;;;5032701;28;20040;-77
2022/05/07 05:43:46;;;;;;;21.35;15.60;;;13.30;99.90;;;;;;5080256;28;20108;-77
2022/05/07 05:46:14;;;;;;;21.88;14.82;;;13.30;99.90;;;;;;5078351;28;20040;-78
2022/05/07 05:48:40;;;;;;;21.98;15.43;;;13.30;99.90;;;;;;5062988;28;20048;-78
2022/05/07 05:51:05;;;;;;;21.92;15.88;;;13.30;99.90;;;;;;5078759;28;20055;-79
2022/05/07 05:53:31;;;;;;;22.52;15.25;;;13.30;99.90;;;;;;5079437;28;20045;-81
2022/05/07 05:55:58;;;;;;;22.58;16.50;;;13.30;99.90;;;;;;5061892;28;20900;-81
2022/05/07 05:58:24;;;;;;;22.73;15.57;;;13.30;99.90;;;;;;5078718;28;20120;-81
2022/05/07 06:00:52;;;;;;;22.30;14.35;;;13.30;99.90;;;;;;5063247;28;20041;-80
2022/05/07 06:03:19;;;;;;;21.05;15.40;;;13.30;99.90;;;;;;5061983;28;20055;-81
2022/05/07 06:05:44;;;;;;;22.63;16.17;;;13.40;99.90;;;;;;5030336;28;20060;-80
2022/05/07 06:08:12;;;;;;;20.75;14.98;;;13.40;99.90;;;;;;5061334;28;20044;-80
2022/05/07 06:10:38;;;;;;;22.85;15.18;;;13.40;99.90;;;;;;5078985;28;20236;-80
2022/05/07 06:13:03;;;;;;;21.10;15.38;;;13.40;99.90;;;;;;5078552;28;20044;-79
2022/05/07 06:15:29;;;;;;;22.45;15.32;;;13.50;99.90;;;;;;5078282;28;20036;-79
2022/05/07 06:17:55;;;;;;;21.45;15.23;;;13.50;99.90;;;;;;5079164;28;20053;-79
2022/05/07 06:20:21;;;;;;;20.67;15.65;;;13.50;99.90;;;;;;5044057;28;20053;-78
2022/05/07 06:22:46;;;;;;;24.38;14.98;;;13.50;99.90;;;;;;5059270;28;20143;-78
2022/05/07 06:27:56;;;;;;;21.52;15.88;;;13.60;99.90;;;;;;5058589;28;20044;-79
2022/05/07 06:30:22;;;;;;;21.67;15.30;;;13.60;99.90;;;;;;5061912;28;20045;-78
2022/05/07 06:32:48;;;;;;;21.35;15.02;;;13.70;99.90;;;;;;5076984;28;20094;-79
2022/05/07 06:35:14;;;;;;;22.63;15.98;;;13.70;99.90;;;;;;5045900;28;20044;-78
2022/05/07 06:37:46;;;;;;;20.85;15.23;;;13.80;99.90;;;;;;5060536;28;20116;-79
2022/05/07 06:40:11;;;;;;;19.70;13.57;;;13.90;99.90;;;;;;5062491;28;20049;-78
2022/05/07 06:42:38;;;;;;;18.15;13.13;;;14.00;99.90;;;;;;5077522;28;20051;-78
2022/05/07 06:45:05;;;;;;;17.85;12.48;;;14.10;99.90;;;;;;5078403;28;20094;-76
2022/05/07 06:47:31;;;;;;;16.83;12.65;;;14.20;99.90;;;;;;5045075;28;20052;-76
2022/05/07 06:49:57;;;;;;;15.70;12.30;;;14.40;99.90;;;;;;5061001;28;20514;-75
2022/05/07 06:52:22;;;;;;;15.57;11.63;;;14.50;99.90;;;;;;5045793;28;20066;-75
2022/05/07 06:54:48;;;;;;;15.57;11.52;;;14.70;99.90;;;;;;5027844;28;20076;-75
2022/05/07 06:57:14;;;;;;;16.10;11.20;;;14.70;99.90;;;;;;5044909;28;20875;-76
2022/05/07 06:59:40;;;;;;;16.52;11.20;;;14.80;99.90;;;;;;5044034;28;20044;-76
2022/05/07 07:02:06;;;;;;;16.20;11.30;;;14.90;99.90;;;;;;5028530;28;20052;-76
2022/05/07 07:04:31;;;;;;;15.60;12.00;;;15.00;99.90;;;;;;5044682;28;20054;-74
2022/05/07 07:06:57;;;;;;;16.63;12.15;;;15.10;99.90;;;;;;5043972;28;20080;-76
2022/05/07 07:09:23;;;;;;;16.77;11.93;;;15.10;99.90;;;;;;5028793;28;20048;-77
2022/05/07 07:11:49;;;;;;;17.55;13.05;;;15.20;99.90;;;;;;5040272;28;20044;-76
2022/05/07 07:14:14;;;;;;;18.50;12.77;;;15.30;99.90;;;;;;5051707;28;20045;-77
2022/05/07 07:16:40;;;;;;;16.92;12.52;;;15.40;99.90;;;;;;5051917;28;20082;-79
2022/05/07 07:19:06;;;;;;;16.35;12.05;;;15.40;99.90;;;;;;5049700;28;20059;-77
2022/05/07 07:21:32;;;;;;;16.35;12.68;;;15.40;99.90;;;;;;5052976;28;20048;-77
2022/05/07 07:23:59;;;;;;;16.60;13.05;;;15.40;99.90;;;;;;5060554;28;20064;-78
2022/05/07 07:26:25;;;;;;;17.73;13.63;;;15.40;99.90;;;;;;5077501;28;20052;-73
2022/05/07 07:28:51;;;;;;;19.08;13.77;;;15.50;99.90;;;;;;5058659;28;20040;-77
2022/05/07 07:31:17;;;;;;;15.30;12.52;;;15.60;99.90;;;;;;5024355;28;20053;-73
2022/05/07 07:33:42;;;;;;;18.17;12.75;;;15.60;99.90;;;;;;5073290;28;20051;-75
2022/05/07 07:36:10;;;;;;;18.30;12.80;;;15.70;99.90;;;;;;5044012;28;20068;-77
2022/05/07 07:38:37;;;;;;;22.58;14.88;;;15.70;99.90;;;;;;5066652;28;20051;-76
2022/05/07 07:41:04;;;;;;;21.02;13.50;;;15.70;99.90;;;;;;5075374;28;20083;-74
2022/05/07 07:43:30;;;;;;;21.33;14.82;;;15.80;99.90;;;;;;5077428;28;20116;-76
2022/05/07 07:48:41;;;;;;;20.83;14.18;;;16.00;99.90;;;;;;5077559;28;20378;-75
2022/05/07 07:51:07;;;;;;;18.85;13.88;;;15.90;99.90;;;;;;5076093;28;20036;-77
2022/05/07 07:53:34;;;;;;;18.65;13.60;;;15.90;99.90;;;;;;5077027;28;20059;-78
2022/05/07 07:56:00;;;;;;;18.88;13.60;;;15.90;99.90;;;;;;5076322;28;20059;-76
2022/05/07 07:58:25;;;;;;;21.95;15.15;;;15.80;99.90;;;;;;5042961;28;20136;-74
2022/05/07 08:00:51;;;;;;;22.67;15.80;;;15.80;99.90;;;;;;5077537;28;20036;-77
2022/05/07 08:03:19;;;;;;;20.88;14.77;;;15.90;99.90;;;;;;5076319;28;20063;-79
2022/05/07 08:05:46;;;;;;;20.33;14.65;;;16.20;99.90;;;;;;5060637;28;20068;-74
2022/05/07 08:13:44;;;;;;;20.98;13.80;;;16.60;99.90;;;;;;5077537;28;20056;-75
2022/05/07 08:16:11;;;;;;;19.00;13.77;;;16.60;99.90;;;;;;5076346;28;20161;-77
2022/05/07 08:18:38;;;;;;;19.55;13.63;;;16.60;99.90;;;;;;5077652;28;20063;-79
2022/05/07 08:21:06;;;;;;;19.15;14.20;;;16.60;99.90;;;;;;5059314;28;20052;-77
2022/05/07 08:23:31;;;;;;;19.35;14.13;;;16.60;99.90;;;;;;5077509;28;20066;-78
2022/05/07 08:25:58;;;;;;;18.92;13.80;;;16.50;99.90;;;;;;5076627;28;20135;-76
2022/05/07 08:28:24;;;;;;;19.35;13.75;;;16.50;99.90;;;;;;5075909;28;20048;-76
2022/05/07 08:30:53;;;;;;;18.63;12.95;;;16.50;99.90;;;;;;5077404;28;20060;-78
2022/05/07 08:33:19;;;;;;;19.45;14.35;;;16.50;99.90;;;;;;5075854;28;20053;-78
2022/05/07 08:35:46;;;;;;;20.23;14.07;;;16.50;99.90;;;;;;5076986;28;20041;-78
2022/05/07 08:38:12;;;;;;;15.10;12.77;;;16.60;99.90;;;;;;5075587;28;20464;-75
2022/05/07 08:40:41;;;;;;;18.55;12.55;;;16.70;99.90;;;;;;5059833;28;20075;-76
2022/05/07 08:43:07;;;;;;;17.65;13.38;;;16.70;99.90;;;;;;5061152;28;20113;-74
2022/05/07 08:45:35;;;;;;;18.05;12.43;;;16.70;99.90;;;;;;5063091;28;20049;-75
2022/05/07 08:48:00;;;;;;;19.70;13.23;;;16.70;99.90;;;;;;5064496;28;20048;-75
2022/05/07 08:50:27;;;;;;;16.85;12.15;;;16.80;99.90;;;;;;5062743;28;20087;-74
2022/05/07 08:52:54;;;;;;;16.35;11.70;;;16.90;99.90;;;;;;5080941;28;20119;-77
2022/05/07 08:55:21;;;;;;;17.40;13.25;;;17.00;99.90;;;;;;5080490;28;20112;-77
2022/05/07 08:57:50;;;;;;;15.32;11.27;;;17.20;99.90;;;;;;5064490;28;20044;-77
2022/05/07 09:00:17;;;;;;;13.32;9.80;;;17.30;99.90;;;;;;5081505;28;20040;-76
2022/05/07 09:02:44;;;;;;;13.48;7.80;;;17.30;99.90;;;;;;5080452;28;20055;-77
2022/05/07 09:05:12;;;;;;;13.90;9.05;;;17.40;99.90;;;;;;5080946;28;20041;-74
2022/05/07 09:07:41;;;;;;;15.18;9.38;;;17.30;99.90;;;;;;5078550;28;20082;-78
2022/05/07 09:10:13;;;;;;;14.20;9.77;;;17.30;99.90;;;;;;5080284;28;20539;-77
2022/05/07 09:12:39;;;;;;;12.65;9.20;;;17.30;99.90;;;;;;5062608;28;20490;-74
2022/05/07 09:15:06;;;;;;;18.45;10.40;;;17.20;99.90;;;;;;5079764;28;20040;-76
2022/05/07 09:17:33;;;;;;;14.20;9.65;;;17.30;99.90;;;;;;5063267;28;20078;-79
2022/05/07 09:20:09;;;;;;;13.98;10.15;;;17.30;99.90;;;;;;5078787;28;20047;-79
2022/05/07 09:22:34;;;;;;;13.73;9.23;;;17.40;99.90;;;;;;5080764;28;20443;-78
2022/05/07 09:25:00;;;;;;;17.90;9.90;;;17.50;99.90;;;;;;5078957;28;20037;-78
2022/05/07 09:27:26;;;;;;;14.45;9.50;;;17.70;99.90;;;;;;5079886;28;20098;-78
2022/05/07 09:29:59;;;;;;;17.42;9.20;;;17.70;99.90;;;;;;5045653;28;20049;-77
2022/05/07 09:32:35;;;;;;;16.30;9.20;;;17.70;99.90;;;;;;5062230;28;20040;-78
2022/05/07 09:37:46;;;;;;;14.35;9.63;;;17.60;99.90;;;;;;5078092;28;20040;-78
2022/05/07 09:40:12;;;;;;;15.50;9.13;;;17.60;99.90;;;;;;5062002;28;20618;-79
2022/05/07 09:42:39;;;;;;;12.45;9.02;;;17.50;99.90;;;;;;5060620;28;20077;-76
2022/05/07 09:45:06;;;;;;;15.90;9.38;;;17.50;99.90;;;;;;5059120;28;20053;-78
2022/05/07 09:47:33;;;;;;;15.98;10.00;;;17.40;99.90;;;;;;5037497;28;20052;-77
2022/05/07 09:58:16;;;;;;;12.57;8.80;;;17.50;99.90;;;;;;5078369;28;20057;-77
2022/05/07 10:01:20;;;;;;;15.35;9.85;;;17.50;99.90;;;;;;5079530;28;20057;-79
2022/05/07 10:04:07;;;;;;;14.25;8.48;;;17.50;99.90;;;;;;5078221;28;20044;-77
2022/05/07 10:06:57;;;;;;;14.68;8.43;;;17.50;99.90;;;;;;5078518;28;20059;-76
2022/05/07 10:10:02;;;;;;;13.98;8.55;;;17.50;99.90;;;;;;5079296;28;20049;-77
2022/05/07 10:12:29;;;;;;;13.13;8.65;;;17.50;99.90;;;;;;5077830;28;20060;-77
2022/05/07 10:15:09;;;;;;;14.50;8.80;;;17.60;99.90;;;;;;5069334;28;20044;-77
2022/05/07 10:17:35;;;;;;;14.68;8.52;;;17.70;99.90;;;;;;5046456;28;20075;-78
2022/05/07 10:20:06;;;;;;;14.65;8.07;;;17.80;99.90;;;;;;5053271;28;20119;-78
2022/05/07 10:22:32;;;;;;;14.70;8.95;;;17.90;99.90;;;;;;5078403;28;20063;-77
2022/05/07 10:25:08;;;;;;;13.57;8.27;;;17.90;99.90;;;;;;5082213;28;20037;-77
2022/05/07 10:27:39;;;;;;;13.00;8.65;;;17.90;99.90;;;;;;5058620;28;20104;-76
2022/05/07 10:30:06;;;;;;;13.60;8.57;;;17.90;99.90;;;;;;5077394;28;20049;-74
2022/05/07 10:32:57;;;;;;;15.50;9.27;;;18.00;99.90;;;;;;5073934;28;20112;-75
2022/05/07 10:35:47;;;;;;;14.13;9.55;;;18.00;99.90;;;;;;5043868;28;20055;-76
2022/05/07 10:38:32;;;;;;;15.15;8.43;;;17.90;99.90;;;;;;5041102;28;20149;-77
2022/05/07 10:41:20;;;;;;;15.85;8.43;;;17.90;99.90;;;;;;5045122;28;20048;-79
2022/05/07 10:43:48;;;;;;;12.15;7.75;;;17.90;99.90;;;;;;5078656;28;20060;-77
2022/05/07 10:46:16;;;;;;;12.55;8.05;;;18.00;99.90;;;;;;5078633;28;20111;-78
2022/05/07 10:48:50;;;;;;;13.23;8.00;;;18.00;99.90;;;;;;5078230;28;20107;-81
2022/05/07 10:51:36;;;;;;;11.45;6.85;;;18.10;99.90;;;;;;5060782;28;20078;-77
2022/05/07 10:54:22;;;;;;;11.68;7.05;;;18.20;99.90;;;;;;5076766;28;20127;-78
2022/05/07 10:56:53;;;;;;;12.20;7.55;;;18.20;99.90;;;;;;5078012;28;20079;-80
2022/05/07 10:59:20;;;;;;;13.35;7.63;;;18.30;99.90;;;;;;5076434;28;20076;-80
2022/05/07 11:01:46;;;;;;;11.60;7.07;;;18.30;99.90;;;;;;5078424;28;20045;-81
2022/05/07 11:04:13;;;;;;;16.05;8.75;;;18.50;99.90;;;;;;5060447;28;20048;-81
2022/05/07 11:06:53;;;;;;;15.52;8.15;;;18.50;99.90;;;;;;5076315;28;20048;-79
2022/05/07 11:09:23;;;;;;;14.50;8.60;;;18.50;99.90;;;;;;5078262;28;20076;-81
2022/05/07 11:11:54;;;;;;;12.93;8.52;;;18.60;99.90;;;;;;5076582;28;20059;-81
2022/05/07 11:14:35;;;;;;;13.68;8.60;;;18.60;99.90;;;;;;5077608;28;20537;-80
2022/05/07 11:17:04;;;;;;;12.93;8.85;;;18.70;99.90;;;;;;5078310;28;20056;-80
2022/05/07 11:19:32;;;;;;;13.70;8.48;;;18.80;99.90;;;;;;5059241;28;20456;-79
2022/05/07 11:22:01;;;;;;;13.30;8.13;;;18.80;99.90;;;;;;5057224;28;20056;-81
2022/05/07 11:24:29;;;;;;;12.65;8.05;;;18.90;99.90;;;;;;5056600;28;20049;-77
2022/05/07 11:26:59;;;;;;;12.60;8.40;;;18.80;99.90;;;;;;5068334;28;20113;-79
2022/05/07 11:29:25;;;;;;;14.93;8.20;;;18.90;99.90;;;;;;5065446;28;20044;-78
2022/05/07 11:31:56;;;;;;;12.63;8.95;;;18.80;99.90;;;;;;5057170;28;20049;-80
2022/05/07 11:34:31;;;;;;;14.07;7.40;;;18.90;99.90;;;;;;5056087;28;20128;-80
2022/05/07 11:37:21;;;;;;;13.17;7.97;;;19.00;99.90;;;;;;5056036;28;20076;-79
2022/05/07 11:39:57;;;;;;;14.00;8.80;;;19.10;99.90;;;;;;5075579;28;21026;-80
2022/05/07 11:45:25;;;;;;;11.48;8.50;;;19.10;99.90;;;;;;5059859;28;20049;-81
2022/05/07 11:45:39;;;;;;;12.82;8.70;;;19.10;99.90;;;;;;5055908;28;20056;-81
2022/05/07 11:48:25;;;;;;;16.83;9.95;;;19.20;99.90;;;;;;5040904;28;20132;-81
2022/05/07 11:50:57;;;;;;;12.40;9.13;;;19.30;99.90;;;;;;5038867;28;20088;-80
2022/05/07 11:53:30;;;;;;;15.13;10.05;;;19.40;99.90;;;;;;5023584;28;20055;-81
2022/05/07 11:56:09;;;;;;;13.43;9.43;;;19.40;99.90;;;;;;5023101;28;20041;-81
2022/05/07 11:58:40;;;;;;;13.43;9.70;;;19.50;99.90;;;;;;5039118;28;20045;-80
2022/05/07 12:01:19;;;;;;;13.63;9.20;;;19.70;99.90;;;;;;5024201;28;20452;-81
2022/05/07 12:03:45;;;;;;;13.18;8.98;;;19.70;99.90;;;;;;5054967;28;20049;-81
2022/05/07 12:06:14;;;;;;;12.35;8.18;;;19.70;99.90;;;;;;5040278;28;20519;-81
2022/05/07 12:08:40;;;;;;;12.57;8.57;;;19.80;99.90;;;;;;5040658;28;20057;-80
2022/05/07 12:11:06;;;;;;;14.48;10.40;;;19.90;99.90;;;;;;5056068;28;20075;-80
2022/05/07 12:13:32;;;;;;;12.80;9.23;;;20.00;99.90;;;;;;5039909;28;20053;-77
2022/05/07 12:18:48;;;;;;;13.40;9.50;;;20.00;99.90;;;;;;5069138;28;20036;-80
2022/05/07 12:21:15;;;;;;;12.63;9.10;;;20.10;99.90;;;;;;5062499;28;20300;-78
2022/05/07 12:31:53;;;;;;;11.13;8.60;;;20.10;99.90;;;;;;5073162;28;20091;-80
2022/05/07 12:34:22;;;;;;;14.38;9.63;;;20.20;99.90;;;;;;5059513;28;20493;-80
2022/05/07 12:36:48;;;;;;;15.85;10.90;;;20.10;99.90;;;;;;5029559;28;20083;-80
2022/05/07 12:39:14;;;;;;;12.55;9.82;;;20.10;99.90;;;;;;5047023;28;20049;-80
2022/05/07 12:41:41;;;;;;;14.35;10.20;;;20.10;99.90;;;;;;5070946;28;20040;-79
2022/05/07 12:44:07;;;;;;;18.27;12.43;;;20.10;99.90;;;;;;5066821;28;20060;-79
2022/05/07 12:46:33;;;;;;;15.60;12.10;;;20.00;99.90;;;;;;5066237;28;20048;-80
2022/05/07 12:48:58;;;;;;;21.77;13.88;;;20.00;99.90;;;;;;5083652;28;20080;-81
2022/05/07 12:51:26;;;;;;;20.52;14.77;;;20.00;99.90;;;;;;5083842;28;20052;-76
2022/05/07 12:53:54;;;;;;;19.80;15.80;;;20.00;99.90;;;;;;5084743;28;20055;-80
2022/05/07 12:56:22;;;;;;;20.08;16.05;;;19.90;99.90;;;;;;5084098;28;20050;-80
2022/05/07 12:58:49;;;;;;;21.00;15.30;;;19.80;99.90;;;;;;5083399;28;20108;-79
2022/05/07 13:01:15;;;;;;;20.35;15.15;;;19.80;99.90;;;;;;5084543;28;20045;-82
2022/05/07 13:03:41;;;;;;;18.48;14.45;;;19.70;99.90;;;;;;5048083;28;20048;-81
2022/05/07 13:06:07;;;;;;;21.40;14.65;;;19.70;99.90;;;;;;5083365;28;20072;-81
2022/05/07 13:08:32;;;;;;;19.73;13.90;;;19.70;99.90;;;;;;5065837;28;20048;-77
2022/05/07 13:10:59;;;;;;;19.10;13.52;;;19.70;99.90;;;;;;5083234;28;20045;-80
2022/05/07 13:13:24;;;;;;;17.77;13.27;;;19.70;99.90;;;;;;5066302;28;20052;-81
2022/05/07 13:15:51;;;;;;;18.20;12.75;;;19.70;99.90;;;;;;5045080;28;20178;-78
2022/05/07 13:18:17;;;;;;;15.73;12.55;;;20.00;99.90;;;;;;5062530;28;20072;-79